Terminal Aerodrome Forecast
Issued by NWS Huntsville, AL

Current Version | Previous Version | Text Only | Print | Product List | Glossary On
Versions: 1 2 3 4 5 6 7 8 9 10 11 12 13 14 15 16 17 18 19 20 21 22 23 24 25 26 27 28 29 30 31 32 33 34 35 36 37
000
FTUS44 KHUN 270520
TAFHSV
TAF
KHSV 270520Z 2706/2806 VRB03KT P6SM SCT060 SCT150 SCT250
      TEMPO 2710/2712 5SM BR
     FM271400 22005KT P6SM VCTS SCT040CB BKN080
     FM271800 22005KT 5SM TSRA BR BKN035CB OVC060
     FM272000 34005KT P6SM SCT040 BKN150 OVC250
      TEMPO 2804/2806 5SM BR=

USA.gov is the U.S. government's official web portal to all federal, state and local government web resources and services.